Time;durP1;ratioP1;P1;durP2;ratioP2;P2;SDS_P1;SDS_P2;PMS_P1;PMS_P2;Temp;Humidity;BMP_temperature;BMP_pressure;BME280_temperature;BME280_humidity;BME280_pressure;Samples;Min_cycle;Max_cycle;Signal;HPM_P1;HPM_P2
2022/10/31 00:01:26;;;;;;;46.92;29.25;;;7.40;99.90;;;;;;5092235;28;20016;-74
2022/10/31 00:03:52;;;;;;;42.65;27.00;;;7.50;99.90;;;;;;5093357;28;20028;-74
2022/10/31 00:06:18;;;;;;;43.78;28.40;;;7.40;99.90;;;;;;5092016;28;20428;-77
2022/10/31 00:08:51;;;;;;;43.20;27.30;;;7.40;99.90;;;;;;5093231;28;20024;-76
2022/10/31 00:11:17;;;;;;;47.20;27.05;;;7.30;99.90;;;;;;5093468;28;20083;-76
2022/10/31 00:13:43;;;;;;;40.50;28.38;;;7.30;99.90;;;;;;5093281;28;20024;-76
2022/10/31 00:16:16;;;;;;;43.65;28.13;;;7.30;99.90;;;;;;5093261;28;20028;-75
2022/10/31 00:18:41;;;;;;;49.15;27.77;;;7.30;99.90;;;;;;5091759;28;20024;-77
2022/10/31 00:21:07;;;;;;;46.75;25.70;;;7.30;99.90;;;;;;5091903;28;20016;-76
2022/10/31 00:23:32;;;;;;;44.22;26.27;;;7.20;99.90;;;;;;5091857;28;20020;-77
2022/10/31 00:26:03;;;;;;;53.10;29.27;;;7.20;99.90;;;;;;5091709;28;20024;-75
2022/10/31 00:28:30;;;;;;;57.70;30.13;;;7.20;99.90;;;;;;5096345;28;20020;-75
2022/10/31 00:31:02;;;;;;;53.40;28.45;;;7.20;99.90;;;;;;5110251;28;20509;-74
2022/10/31 00:33:28;;;;;;;57.00;31.63;;;7.20;99.90;;;;;;5116337;28;20397;-74
2022/10/31 00:35:54;;;;;;;68.28;33.78;;;7.10;99.90;;;;;;5116201;28;20109;-76
2022/10/31 00:38:20;;;;;;;62.03;31.30;;;7.10;99.90;;;;;;5117113;28;20035;-77
2022/10/31 00:40:46;;;;;;;70.65;34.03;;;7.10;99.90;;;;;;5117568;28;20172;-74
2022/10/31 00:43:11;;;;;;;66.50;33.15;;;7.10;99.90;;;;;;5117268;28;20028;-75
2022/10/31 00:45:37;;;;;;;60.30;30.63;;;7.10;99.90;;;;;;5116062;28;20529;-77
2022/10/31 00:48:03;;;;;;;57.05;30.83;;;7.00;99.90;;;;;;5101971;28;20511;-76
2022/10/31 00:50:29;;;;;;;52.35;29.00;;;7.00;99.90;;;;;;5096811;28;20028;-74
2022/10/31 00:52:54;;;;;;;53.08;29.35;;;7.00;99.90;;;;;;5096642;28;20496;-78
2022/10/31 00:55:20;;;;;;;47.53;29.75;;;7.00;99.90;;;;;;5095459;28;20077;-76
2022/10/31 00:57:49;;;;;;;47.00;26.45;;;6.90;99.90;;;;;;5096571;28;20476;-76
2022/10/31 01:00:15;;;;;;;41.58;26.48;;;6.90;99.90;;;;;;5095382;28;20393;-74
2022/10/31 01:02:40;;;;;;;43.97;25.38;;;6.90;99.90;;;;;;5095698;28;20052;-77
2022/10/31 01:05:06;;;;;;;39.28;25.40;;;6.90;99.90;;;;;;5096169;28;20051;-74
2022/10/31 01:07:35;;;;;;;37.78;24.00;;;6.90;99.90;;;;;;5094117;28;20081;-75
2022/10/31 01:10:00;;;;;;;39.50;24.02;;;6.80;99.90;;;;;;5095082;28;20026;-77
2022/10/31 01:12:26;;;;;;;40.42;22.27;;;6.90;99.90;;;;;;5096277;28;20021;-74
2022/10/31 01:14:51;;;;;;;37.42;23.70;;;6.80;99.90;;;;;;5094799;28;20488;-74
2022/10/31 01:17:17;;;;;;;39.45;23.42;;;6.80;99.90;;;;;;5094889;28;20110;-77
2022/10/31 01:19:43;;;;;;;41.58;24.60;;;6.80;99.90;;;;;;5104730;28;20050;-74
2022/10/31 01:22:08;;;;;;;39.47;25.90;;;6.70;99.90;;;;;;5094580;28;20031;-76
2022/10/31 01:24:34;;;;;;;45.03;25.90;;;6.60;99.90;;;;;;5094749;28;20024;-75
2022/10/31 01:26:59;;;;;;;40.33;24.25;;;6.60;99.90;;;;;;5094675;28;20127;-77
2022/10/31 01:29:25;;;;;;;38.22;22.38;;;6.60;99.90;;;;;;5111475;28;20028;-77
2022/10/31 01:31:50;;;;;;;32.78;21.67;;;6.60;99.90;;;;;;5095876;28;20035;-75
2022/10/31 01:34:17;;;;;;;34.28;20.20;;;6.60;99.90;;;;;;5099065;28;20040;-75
2022/10/31 01:36:44;;;;;;;45.88;22.42;;;6.70;99.90;;;;;;5115022;28;20110;-75
2022/10/31 01:39:14;;;;;;;37.40;22.13;;;6.70;99.90;;;;;;5113351;28;20028;-74
2022/10/31 01:41:46;;;;;;;37.65;21.23;;;6.70;99.90;;;;;;5116174;28;20023;-74
2022/10/31 01:44:14;;;;;;;33.00;21.20;;;6.80;99.90;;;;;;5116140;28;20049;-75
2022/10/31 01:47:15;;;;;;;38.30;23.02;;;6.70;99.90;;;;;;5114670;28;20035;-74
2022/10/31 01:49:52;;;;;;;34.58;19.40;;;6.80;99.90;;;;;;5115829;28;20388;-77
2022/10/31 01:52:21;;;;;;;31.20;18.55;;;6.80;99.90;;;;;;5115939;28;20031;-75
2022/10/31 01:54:52;;;;;;;33.05;18.52;;;6.80;99.90;;;;;;5115665;28;20381;-76
2022/10/31 01:57:20;;;;;;;36.70;21.07;;;6.80;99.90;;;;;;5103035;28;20107;-75
2022/10/31 01:59:51;;;;;;;38.85;21.00;;;6.80;99.90;;;;;;5094072;28;20362;-76
2022/10/31 02:02:18;;;;;;;35.90;20.60;;;6.80;99.90;;;;;;5094108;28;20028;-76
2022/10/31 02:04:45;;;;;;;38.33;21.63;;;6.80;99.90;;;;;;5095191;28;20041;-76
2022/10/31 02:07:15;;;;;;;37.70;22.40;;;6.80;99.90;;;;;;5093864;28;20024;-75
2022/10/31 02:09:43;;;;;;;40.97;24.08;;;6.80;99.90;;;;;;5095238;28;20385;-76
2022/10/31 02:12:10;;;;;;;46.30;24.67;;;6.70;99.90;;;;;;5093917;28;20077;-74
2022/10/31 02:14:37;;;;;;;40.40;24.33;;;6.70;99.90;;;;;;5094949;28;20420;-74
2022/10/31 02:17:03;;;;;;;38.08;24.13;;;6.70;99.90;;;;;;5093856;28;20023;-76
2022/10/31 02:19:50;;;;;;;39.05;23.27;;;6.70;99.90;;;;;;5094926;28;20028;-75
2022/10/31 02:22:43;;;;;;;36.83;20.25;;;6.70;99.90;;;;;;5093725;28;20382;-77
2022/10/31 02:25:45;;;;;;;30.27;20.50;;;6.70;99.90;;;;;;5089429;28;20435;-74
2022/10/31 02:28:30;;;;;;;37.25;22.02;;;6.70;99.90;;;;;;5094953;28;20039;-76
2022/10/31 02:31:03;;;;;;;38.55;22.15;;;6.60;99.90;;;;;;5109928;28;20028;-76
2022/10/31 02:33:51;;;;;;;33.15;21.17;;;6.60;99.90;;;;;;5130942;27;20024;-76
2022/10/31 02:36:32;;;;;;;37.25;21.27;;;6.60;99.90;;;;;;5113858;28;20038;-77
2022/10/31 02:39:14;;;;;;;29.88;18.80;;;6.60;99.90;;;;;;5114651;28;20058;-74
2022/10/31 02:42:00;;;;;;;31.40;19.42;;;6.70;99.90;;;;;;5130878;27;20072;-76
2022/10/31 02:44:49;;;;;;;31.02;19.08;;;6.60;99.90;;;;;;5113547;28;20020;-77
2022/10/31 02:47:28;;;;;;;31.10;19.13;;;6.60;99.90;;;;;;5113486;28;20039;-76
2022/10/31 02:49:57;;;;;;;30.77;19.48;;;6.70;99.90;;;;;;5130259;27;20034;-76
2022/10/31 02:52:28;;;;;;;30.27;18.85;;;6.60;99.90;;;;;;5097353;27;20095;-76
2022/10/31 02:54:54;;;;;;;37.50;23.70;;;6.60;99.90;;;;;;5092968;28;20030;-74
2022/10/31 02:57:32;;;;;;;34.63;22.27;;;6.60;99.90;;;;;;5102777;28;20028;-76
2022/10/31 03:00:07;;;;;;;32.38;18.15;;;6.60;99.90;;;;;;5094288;28;20512;-74
2022/10/31 03:02:45;;;;;;;27.58;16.65;;;6.60;99.90;;;;;;5093058;28;20031;-77
2022/10/31 03:05:35;;;;;;;27.98;15.38;;;6.50;99.90;;;;;;5092911;28;20097;-74
2022/10/31 03:08:18;;;;;;;26.83;17.02;;;6.50;99.90;;;;;;5109839;28;20059;-77
2022/10/31 03:10:52;;;;;;;24.38;15.38;;;6.50;99.90;;;;;;5094062;28;20069;-74
2022/10/31 03:13:17;;;;;;;23.65;15.00;;;6.50;99.90;;;;;;5092465;28;20039;-77
2022/10/31 03:15:45;;;;;;;25.20;15.57;;;6.40;99.90;;;;;;5093904;28;20032;-77
2022/10/31 03:18:20;;;;;;;28.05;15.85;;;6.40;99.90;;;;;;5094026;28;20031;-77
2022/10/31 03:20:54;;;;;;;28.80;15.82;;;6.40;99.90;;;;;;5092430;28;20082;-77
2022/10/31 03:23:22;;;;;;;26.92;15.65;;;6.40;99.90;;;;;;5092626;28;20024;-77
2022/10/31 03:25:48;;;;;;;30.15;16.10;;;6.40;99.90;;;;;;5092433;28;20035;-74
2022/10/31 03:28:18;;;;;;;27.63;14.98;;;6.40;99.90;;;;;;5093692;28;20397;-77
2022/10/31 03:30:45;;;;;;;30.30;15.88;;;6.30;99.90;;;;;;5107234;28;20024;-74
2022/10/31 03:33:16;;;;;;;30.70;17.83;;;6.30;99.90;;;;;;5129873;27;20565;-74
2022/10/31 03:35:46;;;;;;;27.75;16.08;;;6.30;99.90;;;;;;5112999;28;20084;-77
2022/10/31 03:38:14;;;;;;;23.95;16.27;;;6.30;99.90;;;;;;5114040;28;20031;-74
2022/10/31 03:40:43;;;;;;;25.58;15.50;;;6.20;99.90;;;;;;5114815;27;20177;-77
2022/10/31 03:43:15;;;;;;;24.92;14.73;;;6.20;99.90;;;;;;5092232;28;20497;-77
2022/10/31 03:45:44;;;;;;;23.38;14.25;;;6.20;99.90;;;;;;5093539;28;20024;-76
2022/10/31 03:48:10;;;;;;;27.92;14.98;;;6.10;99.90;;;;;;5092130;28;20036;-74
2022/10/31 03:50:45;;;;;;;26.73;16.58;;;6.10;99.90;;;;;;5092090;28;20020;-74
2022/10/31 03:53:26;;;;;;;26.75;15.48;;;6.10;99.90;;;;;;5092221;28;20059;-77
2022/10/31 03:56:16;;;;;;;26.33;15.13;;;6.00;99.90;;;;;;5092081;28;20028;-74
2022/10/31 03:58:52;;;;;;;24.02;15.30;;;5.90;99.90;;;;;;5092127;28;20055;-77
2022/10/31 04:01:20;;;;;;;34.15;16.48;;;5.90;99.90;;;;;;5092675;28;20012;-77
2022/10/31 04:03:46;;;;;;;27.30;15.80;;;5.90;99.90;;;;;;5093003;28;20047;-76
2022/10/31 04:06:14;;;;;;;33.92;16.65;;;5.90;99.90;;;;;;5091840;28;20489;-74
2022/10/31 04:08:53;;;;;;;34.85;15.05;;;5.90;99.90;;;;;;5093297;28;20016;-76
2022/10/31 04:11:24;;;;;;;30.30;16.20;;;5.90;99.90;;;;;;5093231;28;20020;-75
2022/10/31 04:13:51;;;;;;;34.25;17.95;;;5.90;99.90;;;;;;5091979;28;20362;-77
2022/10/31 04:16:18;;;;;;;37.38;19.63;;;5.80;99.90;;;;;;5093063;28;20024;-77
2022/10/31 04:18:44;;;;;;;31.13;17.30;;;5.80;99.90;;;;;;5091850;28;20416;-75
2022/10/31 04:21:09;;;;;;;35.33;17.88;;;5.80;99.90;;;;;;5091570;28;20013;-74
2022/10/31 04:23:36;;;;;;;31.48;16.05;;;5.80;99.90;;;;;;5091853;28;20478;-77
2022/10/31 04:26:02;;;;;;;46.92;21.60;;;5.80;99.90;;;;;;5092942;28;20522;-77
2022/10/31 04:28:27;;;;;;;37.63;16.73;;;5.80;99.90;;;;;;5093094;28;20024;-77
2022/10/31 04:30:53;;;;;;;41.63;17.75;;;5.70;99.90;;;;;;5108287;28;20465;-77
2022/10/31 04:33:18;;;;;;;34.33;16.73;;;5.70;99.90;;;;;;5113452;28;20024;-76
2022/10/31 04:35:44;;;;;;;28.90;14.90;;;5.70;99.90;;;;;;5112020;28;20046;-74
2022/10/31 04:38:10;;;;;;;26.08;14.48;;;5.60;99.90;;;;;;5113365;28;20066;-77
2022/10/31 04:40:36;;;;;;;21.55;13.38;;;5.60;99.90;;;;;;5113220;28;20043;-74
2022/10/31 04:43:01;;;;;;;22.35;14.45;;;5.60;99.90;;;;;;5113477;28;20024;-74
2022/10/31 04:45:27;;;;;;;23.27;13.38;;;5.70;99.90;;;;;;5111997;28;20058;-77
2022/10/31 04:47:52;;;;;;;28.38;14.02;;;5.60;99.90;;;;;;5113154;28;20035;-76
2022/10/31 04:50:18;;;;;;;28.13;14.88;;;5.60;99.90;;;;;;5113259;28;20073;-74
2022/10/31 04:52:45;;;;;;;28.38;14.20;;;5.50;99.90;;;;;;5111987;28;20057;-75
2022/10/31 04:55:12;;;;;;;27.67;15.63;;;5.50;99.90;;;;;;5113297;28;20035;-74
2022/10/31 04:57:46;;;;;;;33.63;16.67;;;5.50;99.90;;;;;;5095126;28;20097;-74
2022/10/31 05:00:14;;;;;;;31.15;15.90;;;5.50;99.90;;;;;;5092977;28;20024;-74
2022/10/31 05:02:50;;;;;;;36.00;17.42;;;5.50;99.90;;;;;;5091461;28;20043;-76
2022/10/31 05:05:18;;;;;;;34.20;17.27;;;5.40;99.90;;;;;;5092797;28;20389;-76
2022/10/31 05:07:46;;;;;;;34.55;17.85;;;5.40;99.90;;;;;;5092593;28;20389;-74
2022/10/31 05:10:14;;;;;;;33.13;16.92;;;5.40;99.90;;;;;;5091498;28;20038;-77
2022/10/31 05:12:54;;;;;;;28.85;16.33;;;5.40;99.90;;;;;;5092784;28;20020;-74
2022/10/31 05:15:21;;;;;;;29.75;15.85;;;5.30;99.90;;;;;;5096275;28;20020;-74
2022/10/31 05:17:48;;;;;;;23.77;14.00;;;5.30;99.90;;;;;;5096288;28;20093;-74
2022/10/31 05:20:15;;;;;;;26.13;13.25;;;5.30;99.90;;;;;;5094866;28;20069;-74
2022/10/31 05:22:50;;;;;;;19.60;11.68;;;5.30;99.90;;;;;;5096118;28;20016;-74
2022/10/31 05:25:17;;;;;;;20.85;10.68;;;5.30;99.90;;;;;;5094801;28;20058;-74
2022/10/31 05:27:47;;;;;;;24.35;13.10;;;5.30;99.90;;;;;;5096013;28;20035;-77
2022/10/31 05:30:16;;;;;;;19.92;11.82;;;5.30;99.90;;;;;;5096033;28;20016;-75
2022/10/31 05:32:44;;;;;;;20.58;11.80;;;5.20;99.90;;;;;;5094705;28;20082;-77
2022/10/31 05:35:12;;;;;;;28.33;13.32;;;5.30;99.90;;;;;;5095902;28;20024;-77
2022/10/31 05:37:38;;;;;;;22.95;13.43;;;5.30;99.90;;;;;;5094512;28;20393;-74
2022/10/31 05:40:06;;;;;;;26.65;14.13;;;5.30;99.90;;;;;;5095832;28;20072;-77
2022/10/31 05:42:31;;;;;;;29.73;12.98;;;5.30;99.90;;;;;;5094330;28;20024;-77
2022/10/31 05:44:57;;;;;;;23.02;13.38;;;5.30;99.90;;;;;;5102182;28;20028;-76
2022/10/31 05:47:22;;;;;;;27.00;14.05;;;5.30;99.90;;;;;;5131736;27;20110;-77
2022/10/31 05:49:48;;;;;;;25.23;13.57;;;5.20;99.90;;;;;;5116108;28;20385;-76
2022/10/31 05:52:14;;;;;;;32.65;15.75;;;5.10;99.90;;;;;;5115804;28;20026;-76
2022/10/31 05:54:40;;;;;;;31.15;17.27;;;5.10;99.90;;;;;;5131753;27;20016;-76
2022/10/31 05:57:05;;;;;;;33.38;15.93;;;5.10;99.90;;;;;;5102137;28;20110;-75
2022/10/31 05:59:31;;;;;;;33.13;16.35;;;5.10;99.90;;;;;;5094214;28;20016;-76
2022/10/31 06:01:56;;;;;;;37.92;16.30;;;5.10;99.90;;;;;;5095264;28;20028;-75
2022/10/31 06:04:22;;;;;;;32.00;16.80;;;5.10;99.90;;;;;;5094232;28;20028;-75
2022/10/31 06:06:48;;;;;;;25.60;15.32;;;5.20;99.90;;;;;;5115659;28;20477;-76
2022/10/31 06:09:13;;;;;;;27.50;14.70;;;5.20;99.90;;;;;;5115565;28;20085;-74
2022/10/31 06:11:39;;;;;;;26.33;15.45;;;5.20;99.90;;;;;;5131499;27;20061;-75
2022/10/31 06:14:05;;;;;;;30.90;14.07;;;5.30;99.90;;;;;;5115600;28;20051;-74
2022/10/31 06:16:30;;;;;;;27.40;15.55;;;5.30;99.90;;;;;;5114293;28;20011;-76
2022/10/31 06:18:56;;;;;;;31.02;16.13;;;5.40;99.90;;;;;;5114014;28;20538;-76
2022/10/31 06:21:21;;;;;;;24.38;13.45;;;5.50;99.90;;;;;;5115414;28;20045;-74
2022/10/31 06:23:47;;;;;;;27.73;15.05;;;5.50;99.90;;;;;;5113925;28;20023;-75
2022/10/31 06:26:13;;;;;;;24.92;12.82;;;5.60;99.90;;;;;;5113335;28;20016;-76
2022/10/31 06:28:38;;;;;;;20.67;11.90;;;5.60;99.90;;;;;;5115101;28;20019;-74
2022/10/31 06:31:04;;;;;;;29.80;14.65;;;5.70;99.90;;;;;;5097691;28;20099;-75
2022/10/31 06:33:30;;;;;;;28.25;13.70;;;5.80;99.90;;;;;;5100747;28;20023;-76
2022/10/31 06:35:55;;;;;;;33.47;16.38;;;5.90;99.90;;;;;;5112586;28;20039;-74
2022/10/31 06:38:21;;;;;;;23.67;13.90;;;6.00;99.90;;;;;;5093361;28;20432;-74
2022/10/31 06:40:46;;;;;;;26.58;16.13;;;6.10;99.90;;;;;;5093375;28;20404;-76
2022/10/31 06:43:14;;;;;;;30.67;14.80;;;6.20;99.90;;;;;;5094603;28;20107;-76
2022/10/31 06:45:39;;;;;;;31.40;16.15;;;6.30;99.90;;;;;;5093251;28;20481;-77
2022/10/31 06:48:05;;;;;;;23.63;14.57;;;6.40;99.90;;;;;;5094243;28;20113;-76
2022/10/31 06:50:31;;;;;;;28.77;14.75;;;6.60;99.90;;;;;;5094451;28;20024;-76
2022/10/31 06:52:58;;;;;;;25.52;14.05;;;6.70;99.90;;;;;;5093378;28;20071;-76
2022/10/31 06:55:25;;;;;;;27.63;15.38;;;6.80;99.90;;;;;;5094382;28;20465;-76
2022/10/31 06:57:57;;;;;;;29.98;16.38;;;7.00;99.90;;;;;;5094321;28;20020;-78
2022/10/31 07:00:22;;;;;;;25.77;15.98;;;7.20;99.90;;;;;;5094262;28;20085;-74
2022/10/31 07:02:56;;;;;;;31.75;16.52;;;7.30;99.90;;;;;;5092849;28;20024;-75
2022/10/31 07:05:22;;;;;;;27.70;16.88;;;7.50;99.90;;;;;;5092908;28;20020;-74
2022/10/31 07:07:51;;;;;;;24.67;15.70;;;7.60;99.90;;;;;;5092720;28;20086;-74
2022/10/31 07:10:17;;;;;;;31.45;18.25;;;7.80;99.90;;;;;;5092837;28;20024;-74
2022/10/31 07:12:42;;;;;;;35.80;19.58;;;7.90;99.90;;;;;;5092741;28;20046;-76
2022/10/31 07:15:08;;;;;;;31.45;18.65;;;8.10;99.90;;;;;;5094000;28;20029;-75
2022/10/31 07:17:34;;;;;;;30.33;18.88;;;8.20;99.90;;;;;;5093884;28;20366;-75
2022/10/31 07:19:59;;;;;;;29.98;17.70;;;8.30;99.90;;;;;;5092553;28;20142;-74
2022/10/31 07:22:31;;;;;;;39.65;20.75;;;8.40;99.90;;;;;;5093800;28;20031;-77
2022/10/31 07:24:57;;;;;;;36.97;20.67;;;8.60;99.90;;;;;;5093766;28;20024;-78
2022/10/31 07:27:22;;;;;;;33.60;18.83;;;8.70;99.90;;;;;;5093831;28;20429;-74
2022/10/31 07:29:48;;;;;;;44.75;24.67;;;8.90;99.90;;;;;;5099505;28;20027;-75
2022/10/31 07:32:13;;;;;;;46.75;25.88;;;9.00;99.90;;;;;;5114106;28;20016;-74
2022/10/31 07:34:39;;;;;;;45.38;26.13;;;9.20;99.90;;;;;;5112640;28;20115;-77
2022/10/31 07:37:04;;;;;;;41.28;25.05;;;9.40;99.90;;;;;;5113004;28;20027;-75
2022/10/31 07:39:30;;;;;;;44.22;21.50;;;9.50;99.90;;;;;;5112476;28;20122;-77
2022/10/31 07:41:58;;;;;;;48.20;25.77;;;9.60;99.90;;;;;;5113878;28;20032;-75
2022/10/31 07:44:24;;;;;;;46.92;26.40;;;9.80;99.90;;;;;;5112459;28;20106;-77
2022/10/31 07:46:50;;;;;;;43.92;26.45;;;9.90;99.90;;;;;;5113708;28;20161;-74
2022/10/31 07:49:15;;;;;;;46.50;27.23;;;10.00;99.90;;;;;;5112052;28;20034;-74
2022/10/31 07:51:41;;;;;;;49.15;26.50;;;10.10;99.90;;;;;;5112541;28;20035;-74
2022/10/31 07:54:06;;;;;;;51.72;28.20;;;10.20;99.90;;;;;;5113759;28;20107;-75
2022/10/31 07:56:32;;;;;;;53.22;29.80;;;10.30;99.90;;;;;;5105482;28;20040;-77
2022/10/31 07:58:58;;;;;;;50.45;26.38;;;10.40;99.90;;;;;;5091985;28;20032;-74
2022/10/31 08:01:23;;;;;;;55.78;27.42;;;10.50;99.90;;;;;;5092194;28;20061;-75
2022/10/31 08:03:49;;;;;;;50.35;25.67;;;10.60;99.90;;;;;;5091898;28;20054;-76
2022/10/31 08:06:14;;;;;;;46.28;24.80;;;10.70;99.90;;;;;;5091940;28;20481;-77
2022/10/31 08:08:40;;;;;;;45.80;25.38;;;10.80;99.90;;;;;;5093195;28;20020;-74
2022/10/31 08:11:06;;;;;;;49.80;27.02;;;10.90;99.90;;;;;;5091947;28;20064;-75
2022/10/31 08:13:31;;;;;;;47.35;23.45;;;11.00;99.90;;;;;;5091692;28;20060;-74
2022/10/31 08:16:03;;;;;;;42.85;24.02;;;11.10;99.90;;;;;;5093043;28;20103;-74
2022/10/31 08:18:29;;;;;;;45.40;23.70;;;11.20;99.90;;;;;;5104443;28;20031;-74
2022/10/31 08:20:54;;;;;;;40.17;23.25;;;11.30;99.90;;;;;;5108423;28;20043;-74
2022/10/31 08:23:20;;;;;;;44.90;24.73;;;11.40;99.90;;;;;;5091859;28;20024;-76
2022/10/31 08:25:47;;;;;;;46.35;25.50;;;11.60;99.90;;;;;;5091704;28;20020;-77
2022/10/31 08:28:14;;;;;;;45.47;26.15;;;11.70;99.90;;;;;;5092653;28;20046;-78
2022/10/31 08:30:40;;;;;;;43.08;25.38;;;11.80;99.90;;;;;;5107470;28;20076;-77
2022/10/31 08:33:13;;;;;;;46.63;23.80;;;11.90;99.90;;;;;;5113347;28;20027;-75
2022/10/31 08:35:39;;;;;;;43.85;23.92;;;12.00;99.90;;;;;;5111920;28;20039;-77
2022/10/31 08:38:05;;;;;;;46.05;24.25;;;12.10;99.90;;;;;;5112103;28;20434;-77
2022/10/31 08:40:32;;;;;;;40.17;24.00;;;12.20;99.90;;;;;;5111761;28;20047;-75
2022/10/31 08:43:00;;;;;;;41.75;23.55;;;12.30;99.90;;;;;;5101042;28;20411;-77
2022/10/31 08:45:27;;;;;;;37.30;22.63;;;12.40;99.90;;;;;;5092370;28;20048;-75
2022/10/31 08:47:57;;;;;;;42.55;23.05;;;12.50;99.90;;;;;;5091252;28;20042;-75
2022/10/31 08:50:22;;;;;;;40.30;23.20;;;12.60;99.90;;;;;;5095348;28;20102;-77
2022/10/31 08:52:48;;;;;;;45.38;23.58;;;12.70;99.90;;;;;;5092356;28;20116;-76
2022/10/31 08:55:13;;;;;;;35.33;22.65;;;12.80;99.90;;;;;;5095332;28;20031;-76
2022/10/31 08:57:39;;;;;;;42.50;23.92;;;12.80;99.90;;;;;;5096498;28;20062;-75
2022/10/31 09:00:05;;;;;;;39.63;24.23;;;12.90;99.90;;;;;;5096131;28;20024;-76
2022/10/31 09:02:31;;;;;;;39.67;22.13;;;13.00;99.90;;;;;;5095152;28;20061;-78
2022/10/31 09:04:56;;;;;;;40.97;23.33;;;13.10;99.90;;;;;;5093998;28;20474;-77
2022/10/31 09:07:22;;;;;;;39.38;20.83;;;13.20;99.90;;;;;;5096305;28;20040;-76
2022/10/31 09:09:47;;;;;;;39.75;22.40;;;13.30;99.90;;;;;;5095084;28;20507;-77
2022/10/31 09:12:13;;;;;;;38.08;20.50;;;13.40;99.90;;;;;;5096491;28;20050;-76
2022/10/31 09:14:39;;;;;;;32.05;18.77;;;13.50;99.90;;;;;;5095037;28;20051;-76
2022/10/31 09:17:04;;;;;;;33.20;19.35;;;13.60;99.90;;;;;;5094500;28;20021;-74
2022/10/31 09:19:30;;;;;;;30.88;18.40;;;13.60;99.90;;;;;;5094850;28;20059;-74
2022/10/31 09:21:55;;;;;;;33.72;18.90;;;13.70;99.90;;;;;;5101397;28;20028;-74
2022/10/31 09:24:21;;;;;;;28.63;17.73;;;13.80;99.90;;;;;;5116355;28;20103;-76
2022/10/31 09:26:47;;;;;;;31.00;17.77;;;13.90;99.90;;;;;;5115934;28;20039;-76
2022/10/31 09:29:13;;;;;;;35.50;18.35;;;14.00;99.90;;;;;;5100834;28;20016;-76
2022/10/31 09:31:38;;;;;;;36.15;18.70;;;14.10;99.90;;;;;;5115921;28;20042;-76
2022/10/31 09:34:04;;;;;;;29.27;16.50;;;14.20;99.90;;;;;;5116314;28;20062;-73
2022/10/31 09:36:29;;;;;;;26.27;16.50;;;14.30;99.90;;;;;;5115706;28;20027;-74
2022/10/31 09:38:55;;;;;;;29.02;16.75;;;14.40;99.90;;;;;;5114523;28;20023;-76
2022/10/31 09:41:35;;;;;;;26.52;16.55;;;14.50;99.90;;;;;;5114715;28;20079;-76
2022/10/31 09:44:19;;;;;;;28.25;16.63;;;14.60;99.90;;;;;;5116196;28;20019;-74
2022/10/31 09:46:47;;;;;;;26.95;17.02;;;14.70;99.90;;;;;;5114367;28;20085;-74
2022/10/31 09:49:31;;;;;;;30.33;16.65;;;14.80;99.90;;;;;;5115901;28;20027;-74
2022/10/31 09:52:20;;;;;;;26.20;16.38;;;14.90;99.90;;;;;;5096772;28;20036;-74
2022/10/31 09:54:55;;;;;;;28.48;15.60;;;15.00;99.90;;;;;;5093590;28;20016;-74
2022/10/31 09:57:35;;;;;;;28.73;14.88;;;15.20;99.90;;;;;;5101491;28;20380;-76
2022/10/31 10:00:04;;;;;;;29.58;17.60;;;15.20;99.90;;;;;;5113267;28;20092;-76
2022/10/31 10:02:47;;;;;;;22.38;15.02;;;15.30;99.90;;;;;;5113689;28;20042;-76
2022/10/31 10:05:18;;;;;;;26.02;16.15;;;15.40;99.90;;;;;;5105485;28;20542;-76
2022/10/31 10:08:02;;;;;;;22.17;15.32;;;15.50;99.90;;;;;;5094151;28;20090;-74
2022/10/31 10:10:34;;;;;;;30.45;16.50;;;15.60;99.90;;;;;;5074286;28;20116;-76
2022/10/31 10:13:08;;;;;;;31.58;18.48;;;15.70;99.90;;;;;;5087292;28;20028;-76
2022/10/31 10:15:42;;;;;;;29.05;16.90;;;15.80;99.90;;;;;;5091764;28;20044;-77
2022/10/31 10:18:34;;;;;;;27.52;16.65;;;15.90;99.90;;;;;;5092568;28;20032;-77
2022/10/31 10:21:14;;;;;;;27.58;16.40;;;16.00;99.90;;;;;;5093346;28;20107;-74
2022/10/31 10:23:57;;;;;;;26.30;14.77;;;16.00;99.90;;;;;;5094195;28;20067;-74
2022/10/31 10:26:30;;;;;;;31.08;15.73;;;16.10;99.90;;;;;;5092365;28;20028;-74
2022/10/31 10:29:15;;;;;;;30.13;15.50;;;16.20;99.90;;;;;;5088992;28;20052;-74
2022/10/31 10:31:42;;;;;;;29.30;15.90;;;16.30;99.90;;;;;;5090850;28;20377;-75
2022/10/31 10:34:22;;;;;;;26.48;13.60;;;16.40;99.90;;;;;;5095745;28;20040;-74
2022/10/31 10:37:00;;;;;;;24.00;14.45;;;16.50;99.90;;;;;;5099542;28;20046;-74
2022/10/31 10:39:35;;;;;;;27.35;13.52;;;16.60;99.90;;;;;;5097289;28;20050;-74
2022/10/31 10:47:44;;;;;;;23.17;13.57;;;17.00;99.90;;;;;;5100039;28;20055;-76
2022/10/31 10:50:18;;;;;;;20.77;13.57;;;17.00;99.90;;;;;;5093494;28;20035;-76
2022/10/31 10:52:52;;;;;;;28.80;14.88;;;17.10;99.90;;;;;;5102920;28;20023;-76
2022/10/31 10:55:18;;;;;;;23.90;12.50;;;17.20;99.90;;;;;;5113524;28;20515;-75
2022/10/31 10:58:09;;;;;;;24.17;12.15;;;17.20;99.90;;;;;;5106508;28;20020;-75
2022/10/31 11:00:46;;;;;;;22.92;12.90;;;17.30;99.90;;;;;;5090139;28;20055;-76
2022/10/31 11:03:13;;;;;;;22.83;13.25;;;17.40;99.90;;;;;;5126882;27;20084;-77
2022/10/31 11:05:58;;;;;;;24.10;12.90;;;17.50;99.90;;;;;;5113251;28;20027;-76
2022/10/31 11:08:34;;;;;;;26.92;12.27;;;17.60;99.90;;;;;;5092788;28;20123;-76
2022/10/31 11:11:25;;;;;;;20.38;12.13;;;17.60;99.90;;;;;;5093313;28;20065;-76
2022/10/31 11:13:55;;;;;;;20.95;11.25;;;17.70;99.90;;;;;;5093763;28;20039;-76
2022/10/31 11:16:26;;;;;;;24.13;11.45;;;17.80;99.90;;;;;;5075559;28;20545;-76
2022/10/31 11:18:53;;;;;;;23.95;11.15;;;17.90;99.90;;;;;;5088515;28;20501;-76
2022/10/31 11:21:32;;;;;;;21.25;11.45;;;17.90;99.90;;;;;;5088292;28;20031;-76
2022/10/31 11:24:09;;;;;;;20.23;11.60;;;17.90;99.90;;;;;;5087199;28;20020;-76
2022/10/31 11:26:40;;;;;;;24.48;11.00;;;18.00;99.90;;;;;;5086817;28;20039;-75
2022/10/31 11:29:21;;;;;;;17.15;9.40;;;18.00;99.90;;;;;;5089885;28;20556;-76
2022/10/31 11:31:49;;;;;;;19.83;10.10;;;18.10;99.90;;;;;;5087460;28;20107;-76
2022/10/31 11:34:25;;;;;;;21.08;10.95;;;18.20;99.90;;;;;;5087371;28;20042;-76
2022/10/31 11:36:50;;;;;;;18.52;10.20;;;18.30;99.90;;;;;;5087880;28;20032;-76
2022/10/31 11:39:25;;;;;;;17.85;9.70;;;18.30;99.90;;;;;;5088348;28;20043;-76
2022/10/31 11:41:53;;;;;;;22.85;10.73;;;18.40;99.10;;;;;;5102855;28;20046;-76
2022/10/31 11:44:28;;;;;;;17.92;9.98;;;18.50;97.20;;;;;;5110205;28;20047;-76
2022/10/31 11:46:59;;;;;;;20.15;11.02;;;18.50;94.40;;;;;;5108845;28;20035;-76
2022/10/31 11:49:40;;;;;;;22.00;10.65;;;18.50;93.90;;;;;;5109077;28;20043;-77
2022/10/31 11:52:12;;;;;;;16.58;8.65;;;18.60;91.50;;;;;;5112712;28;20024;-76
2022/10/31 11:55:13;;;;;;;16.63;8.07;;;18.60;86.10;;;;;;5112300;28;20028;-74
2022/10/31 11:57:44;;;;;;;15.52;8.30;;;18.60;84.50;;;;;;5095362;28;20012;-74
2022/10/31 12:00:22;;;;;;;16.30;8.98;;;18.60;83.70;;;;;;5092724;28;20028;-76
2022/10/31 12:02:48;;;;;;;20.05;9.18;;;18.70;84.40;;;;;;5108880;28;20016;-74
2022/10/31 12:05:27;;;;;;;17.63;8.20;;;18.60;87.50;;;;;;5112571;28;20485;-74
2022/10/31 12:07:53;;;;;;;15.65;9.43;;;18.70;86.90;;;;;;5109924;28;20031;-74
2022/10/31 12:10:23;;;;;;;14.38;8.77;;;18.80;84.10;;;;;;5109972;28;20039;-74
2022/10/31 12:13:20;;;;;;;15.98;7.82;;;18.80;84.00;;;;;;5106861;28;20024;-71
2022/10/31 12:15:54;;;;;;;16.40;8.57;;;18.80;83.90;;;;;;5111097;28;20516;-74
2022/10/31 12:18:40;;;;;;;16.85;8.45;;;18.80;83.50;;;;;;5099668;28;20150;-75
2022/10/31 12:21:50;;;;;;;16.15;8.80;;;18.80;82.00;;;;;;5095117;28;20491;-74
2022/10/31 12:24:57;;;;;;;20.80;8.90;;;18.80;82.20;;;;;;5087988;28;20040;-74
2022/10/31 12:27:48;;;;;;;19.00;8.60;;;18.80;81.50;;;;;;5095607;28;20059;-72
2022/10/31 12:30:25;;;;;;;17.02;8.90;;;18.90;84.50;;;;;;5098024;28;20121;-71
2022/10/31 12:33:25;;;;;;;15.85;8.63;;;18.90;85.00;;;;;;5095932;28;20035;-71
2022/10/31 12:36:20;;;;;;;21.67;8.70;;;18.90;84.10;;;;;;5092958;28;20068;-71
2022/10/31 12:39:13;;;;;;;15.90;9.43;;;18.90;81.70;;;;;;5089445;28;20024;-71
2022/10/31 12:41:46;;;;;;;15.30;8.88;;;18.90;80.70;;;;;;5093336;28;20120;-72
2022/10/31 12:44:15;;;;;;;15.15;9.25;;;18.90;82.10;;;;;;5092639;28;20124;-71
2022/10/31 12:47:16;;;;;;;18.55;8.75;;;19.00;82.00;;;;;;5097617;28;20036;-73
2022/10/31 12:50:02;;;;;;;10.93;8.63;;;19.00;81.80;;;;;;5099197;28;20486;-72
2022/10/31 12:53:03;;;;;;;17.10;8.05;;;19.00;81.50;;;;;;5097080;28;20022;-71
2022/10/31 12:55:57;;;;;;;13.52;8.48;;;19.00;82.70;;;;;;5084911;28;20040;-72
2022/10/31 12:58:35;;;;;;;14.77;8.05;;;19.00;82.30;;;;;;5095720;28;20119;-72